Time;durP1;ratioP1;P1;durP2;ratioP2;P2;SDS_P1;SDS_P2;PMS_P1;PMS_P2;Temp;Humidity;BMP_temperature;BMP_pressure;BME280_temperature;BME280_humidity;BME280_pressure;Samples;Min_cycle;Max_cycle;Signal;HPM_P1;HPM_P2
2022/06/13 00:00:34;;;;;;;10.30;2.42;;;;;;;-141.50;100.00;63355.56;5070363;28;20074;-78
2022/06/13 00:03:02;;;;;;;8.60;2.03;;;;;;;-141.50;100.00;63355.56;5052132;28;20056;-79
2022/06/13 00:05:33;;;;;;;6.60;2.28;;;;;;;-141.50;100.00;63355.56;5053538;28;20081;-78
2022/06/13 00:08:00;;;;;;;6.43;1.90;;;;;;;-141.50;100.00;63355.56;5052324;28;20095;-77
2022/06/13 00:10:27;;;;;;;9.23;2.35;;;;;;;-141.50;100.00;63355.56;5070782;28;20137;-77
2022/06/13 00:12:53;;;;;;;13.52;2.40;;;;;;;-141.50;100.00;63355.56;5078659;28;20048;-79
2022/06/13 00:15:20;;;;;;;8.93;2.10;;;;;;;-141.50;100.00;63355.56;5070868;28;20140;-78
2022/06/13 00:17:46;;;;;;;9.73;2.65;;;;;;;-141.50;100.00;63355.56;5070179;28;20052;-79
2022/06/13 00:20:13;;;;;;;10.07;2.20;;;;;;;-141.50;100.00;63355.56;5053561;28;20044;-79
2022/06/13 00:22:40;;;;;;;9.85;1.95;;;;;;;-141.50;100.00;63355.56;5075512;28;20120;-76
2022/06/13 00:25:08;;;;;;;10.18;2.50;;;;;;;-141.50;100.00;63355.56;5080973;28;20063;-77
2022/06/13 00:27:36;;;;;;;12.73;2.60;;;;;;;-141.50;100.00;63355.56;5078631;28;20067;-79
2022/06/13 00:30:07;;;;;;;8.68;2.50;;;;;;;-141.50;100.00;63355.56;5078212;28;20549;-78
2022/06/13 00:32:33;;;;;;;7.13;2.10;;;;;;;-141.50;100.00;63355.56;5059587;28;20049;-78
2022/06/13 00:35:01;;;;;;;10.02;2.20;;;;;;;-141.50;100.00;63355.56;5078116;28;20053;-78
2022/06/13 00:37:29;;;;;;;9.65;2.40;;;;;;;-141.50;100.00;63355.56;5073612;28;20064;-78
2022/06/13 00:39:55;;;;;;;11.43;2.30;;;;;;;-141.50;100.00;63355.56;5054600;28;20098;-79
2022/06/13 00:42:25;;;;;;;4.93;2.38;;;;;;;-141.50;100.00;63355.56;5072489;28;20486;-78
2022/06/13 00:45:10;;;;;;;9.95;2.22;;;;;;;-141.50;100.00;63355.56;5056216;28;20075;-78
2022/06/13 00:47:39;;;;;;;8.02;2.75;;;;;;;-141.50;100.00;63355.56;5058103;28;20055;-77
2022/06/13 00:50:08;;;;;;;8.57;2.72;;;;;;;-141.50;100.00;63355.56;5076322;28;20052;-77
2022/06/13 00:52:45;;;;;;;4.13;2.05;;;;;;;-141.50;100.00;63355.56;5072719;28;20099;-78
2022/06/13 00:55:18;;;;;;;13.88;2.10;;;;;;;-141.50;100.00;63355.56;5073548;28;20087;-79
2022/06/13 00:57:44;;;;;;;6.95;2.15;;;;;;;-141.50;100.00;63355.56;5073666;28;20082;-79
2022/06/13 01:00:14;;;;;;;11.23;2.40;;;;;;;-141.50;100.00;63355.56;5073567;28;20057;-77
2022/06/13 01:02:45;;;;;;;7.75;2.40;;;;;;;-141.50;100.00;63355.56;5071876;28;20080;-77
2022/06/13 01:05:16;;;;;;;11.13;2.25;;;;;;;-141.50;100.00;63355.56;5071603;28;20706;-79
2022/06/13 01:07:44;;;;;;;9.23;2.65;;;;;;;-141.50;100.00;63355.56;5073446;28;20122;-80
2022/06/13 01:12:56;;;;;;;6.60;2.67;;;;;;;-141.50;100.00;63355.56;5073725;28;20652;-78
2022/06/13 01:15:47;;;;;;;9.18;2.60;;;;;;;-141.50;100.00;63355.56;5079378;28;20103;-78
2022/06/13 01:18:17;;;;;;;10.82;2.40;;;;;;;-141.50;100.00;63355.56;5059405;28;20049;-77
2022/06/13 01:20:49;;;;;;;7.05;2.80;;;;;;;-141.50;100.00;63355.56;5052479;28;20049;-77
2022/06/13 01:23:30;;;;;;;8.75;2.25;;;;;;;-141.50;100.00;63355.56;5055292;28;20060;-80
2022/06/13 01:26:25;;;;;;;14.85;2.90;;;;;;;-141.50;100.00;63355.56;5052523;28;20063;-78
2022/06/13 01:29:26;;;;;;;9.90;2.35;;;;;;;-141.50;100.00;63355.56;5052664;28;20053;-78
2022/06/13 01:32:20;;;;;;;5.45;1.80;;;;;;;-141.50;100.00;63355.56;5062362;28;20052;-77
2022/06/13 01:35:02;;;;;;;7.03;2.38;;;;;;;-141.50;100.00;63355.56;5065600;28;20056;-76
2022/06/13 01:37:51;;;;;;;8.52;2.53;;;;;;;-141.50;100.00;63355.56;5059984;28;20056;-81
2022/06/13 01:40:51;;;;;;;4.90;2.35;;;;;;;-141.50;100.00;63355.56;5024376;28;20107;-80
2022/06/13 01:43:23;;;;;;;5.72;2.08;;;;;;;-141.50;100.00;63355.56;5052063;28;20132;-80
2022/06/13 01:46:08;;;;;;;8.07;2.33;;;;;;;-141.50;100.00;63355.56;5052881;28;20564;-77
2022/06/13 01:49:05;;;;;;;6.82;2.70;;;;;;;-141.50;100.00;63355.56;5053150;28;20049;-78
2022/06/13 01:51:52;;;;;;;9.88;2.65;;;;;;;-141.50;100.00;63355.56;5052419;28;20045;-79
2022/06/13 01:54:27;;;;;;;5.93;2.30;;;;;;;-141.50;100.00;63355.56;5050748;28;20045;-79
2022/06/13 01:57:02;;;;;;;8.80;2.40;;;;;;;-141.50;100.00;63355.56;5053186;28;20049;-79
2022/06/13 02:00:00;;;;;;;6.28;2.45;;;;;;;-141.50;100.00;63355.56;5051597;28;20075;-79
2022/06/13 02:02:32;;;;;;;9.38;2.22;;;;;;;-141.50;100.00;63355.56;5046326;28;20049;-79
2022/06/13 02:05:05;;;;;;;8.10;2.10;;;;;;;-141.50;100.00;63355.56;5051019;28;20044;-77
2022/06/13 02:07:39;;;;;;;11.43;2.65;;;;;;;-141.50;100.00;63355.56;5051746;28;20045;-78
2022/06/13 02:10:32;;;;;;;7.93;2.30;;;;;;;-141.50;100.00;63355.56;5064677;28;20053;-76
2022/06/13 02:13:10;;;;;;;8.45;2.00;;;;;;;-141.50;100.00;63355.56;5054805;28;20099;-78
2022/06/13 02:15:45;;;;;;;6.30;2.03;;;;;;;-141.50;100.00;63355.56;5049822;28;20080;-79
2022/06/13 02:18:22;;;;;;;9.65;2.25;;;;;;;-141.50;100.00;63355.56;5062653;28;20110;-78
2022/06/13 02:20:55;;;;;;;6.20;2.20;;;;;;;-141.50;100.00;63355.56;5072679;28;20079;-79
2022/06/13 02:23:28;;;;;;;8.93;2.40;;;;;;;-141.50;100.00;63355.56;5072426;28;20395;-81
2022/06/13 02:26:04;;;;;;;7.53;2.28;;;;;;;-141.50;100.00;63355.56;5072868;28;20075;-81
2022/06/13 02:28:44;;;;;;;19.35;2.60;;;;;;;-141.50;100.00;63355.56;5073093;28;20084;-78
2022/06/13 02:31:18;;;;;;;12.30;2.35;;;;;;;-141.50;100.00;63355.56;5070944;28;20057;-80
2022/06/13 02:34:04;;;;;;;8.93;1.85;;;;;;;-141.50;100.00;63355.56;5054703;28;20125;-79
2022/06/13 02:36:31;;;;;;;7.53;2.10;;;;;;;-141.50;100.00;63355.56;5071766;28;20080;-78
2022/06/13 02:39:04;;;;;;;7.72;2.00;;;;;;;-141.50;100.00;63355.56;5053895;28;20140;-79
2022/06/13 02:41:39;;;;;;;7.20;1.98;;;;;;;-141.50;100.00;63355.56;5071742;28;20179;-78
2022/06/13 02:44:12;;;;;;;9.40;1.75;;;;;;;-141.50;100.00;63355.56;5071467;28;20083;-77
2022/06/13 02:46:47;;;;;;;9.70;2.13;;;;;;;-141.50;100.00;63355.56;5071889;28;20051;-79
2022/06/13 02:49:32;;;;;;;8.02;2.00;;;;;;;-141.50;100.00;63355.56;5053702;28;20106;-77
2022/06/13 02:52:11;;;;;;;10.77;2.20;;;;;;;-141.50;100.00;63355.56;5072168;28;20076;-79
2022/06/13 02:55:03;;;;;;;10.73;2.28;;;;;;;-141.50;100.00;63355.56;5071766;28;20048;-79
2022/06/13 02:57:38;;;;;;;10.43;2.40;;;;;;;-141.50;100.00;63355.56;5071687;28;20552;-80
2022/06/13 03:00:08;;;;;;;8.05;2.35;;;;;;;-141.50;100.00;63355.56;5054193;28;20152;-80
2022/06/13 03:02:49;;;;;;;9.95;2.25;;;;;;;-141.50;100.00;63355.56;5056567;28;20044;-78
2022/06/13 03:05:43;;;;;;;13.55;2.13;;;;;;;-141.50;100.00;63355.56;5071557;28;20483;-77
2022/06/13 03:08:10;;;;;;;7.88;2.13;;;;;;;-141.50;100.00;63355.56;5077112;28;20659;-78
2022/06/13 03:10:49;;;;;;;12.07;2.00;;;;;;;-141.50;100.00;63355.56;5077561;28;20048;-78
2022/06/13 03:13:26;;;;;;;11.10;2.17;;;;;;;-141.50;100.00;63355.56;5056868;28;20052;-77
2022/06/13 03:16:02;;;;;;;11.52;2.72;;;;;;;-141.50;100.00;63355.56;5070563;28;20087;-79
2022/06/13 03:18:34;;;;;;;11.63;2.17;;;;;;;-141.50;100.00;63355.56;5081635;28;20138;-79
2022/06/13 03:21:14;;;;;;;7.70;1.90;;;;;;;-141.50;100.00;63355.56;5062508;28;20098;-80
2022/06/13 03:23:47;;;;;;;8.07;2.00;;;;;;;-141.50;100.00;63355.56;5070641;28;20086;-78
2022/06/13 03:26:26;;;;;;;12.45;2.38;;;;;;;-141.50;100.00;63355.56;5070683;28;20060;-79
2022/06/13 03:29:01;;;;;;;13.85;2.72;;;;;;;-141.50;100.00;63355.56;5053489;28;20174;-80
2022/06/13 03:31:40;;;;;;;9.80;2.35;;;;;;;-141.50;100.00;63355.56;5071506;28;20087;-79
2022/06/13 03:34:12;;;;;;;8.48;2.13;;;;;;;-141.50;100.00;63355.56;5070936;28;20076;-79
2022/06/13 03:36:58;;;;;;;8.93;2.30;;;;;;;-141.50;100.00;63355.56;5070000;28;20106;-79
2022/06/13 03:40:04;;;;;;;7.13;2.40;;;;;;;-141.50;100.00;63355.56;5070852;28;20110;-80
2022/06/13 03:42:36;;;;;;;;;;;;;;;-141.50;100.00;63355.56;5053555;28;20137;-79
2022/06/13 03:45:38;;;;;;;10.07;2.63;;;;;;;-141.50;100.00;63355.56;5070006;28;19947;-78
2022/06/13 03:48:14;;;;;;;12.27;2.75;;;;;;;-141.50;100.00;63355.56;5061522;28;20045;-78
2022/06/13 03:50:57;;;;;;;18.90;2.75;;;;;;;-141.50;100.00;63355.56;5052051;28;20048;-78
2022/06/13 03:53:32;;;;;;;13.32;2.50;;;;;;;-141.50;100.00;63355.56;5052713;28;20087;-79
2022/06/13 03:56:09;;;;;;;10.43;2.55;;;;;;;-141.50;100.00;63355.56;5059899;28;20060;-77
2022/06/13 03:58:42;;;;;;;13.75;3.28;;;;;;;-141.50;100.00;63355.56;5075338;28;20052;-78
2022/06/13 04:01:17;;;;;;;10.23;2.65;;;;;;;-141.50;100.00;63355.56;5091546;28;20036;-78
2022/06/13 04:03:43;;;;;;;11.38;2.83;;;;;;;-141.50;100.00;63355.56;5076278;28;20044;-77
2022/06/13 04:06:32;;;;;;;12.35;2.88;;;;;;;-141.50;100.00;63355.56;5058050;28;20049;-80
2022/06/13 04:09:02;;;;;;;7.85;2.47;;;;;;;-141.50;100.00;63355.56;5081157;28;20072;-79
2022/06/13 04:11:50;;;;;;;10.13;2.45;;;;;;;-141.50;100.00;63355.56;5084711;28;20059;-80
2022/06/13 04:14:39;;;;;;;10.85;2.60;;;;;;;-141.50;100.00;63355.56;5053717;28;20048;-79
2022/06/13 04:17:24;;;;;;;12.00;2.90;;;;;;;-141.50;100.00;63355.56;5069646;28;20099;-79
2022/06/13 04:20:12;;;;;;;10.40;2.80;;;;;;;-141.50;100.00;63355.56;5070380;28;20123;-79
2022/06/13 04:22:52;;;;;;;10.13;2.65;;;;;;;-141.50;100.00;63355.56;5070133;28;20140;-79
2022/06/13 04:25:33;;;;;;;6.05;2.65;;;;;;;-141.50;100.00;63355.56;5070226;28;20080;-78
2022/06/13 04:28:06;;;;;;;9.40;2.40;;;;;;;-141.50;100.00;63355.56;5069822;28;20123;-79
2022/06/13 04:30:35;;;;;;;10.07;2.63;;;;;;;-141.50;100.00;63355.56;5068479;28;20070;-80
2022/06/13 04:33:02;;;;;;;10.90;2.80;;;;;;;-141.50;100.00;63355.56;5075504;28;20048;-76
2022/06/13 04:35:31;;;;;;;12.80;2.40;;;;;;;-141.50;100.00;63355.56;5056879;28;20087;-78
2022/06/13 04:38:00;;;;;;;9.00;2.72;;;;;;;-141.50;100.00;63355.56;5062863;28;20045;-75
2022/06/13 04:40:29;;;;;;;11.40;2.60;;;;;;;-141.50;100.00;63355.56;5089672;28;20066;-77
2022/06/13 04:42:57;;;;;;;10.75;2.67;;;;;;;-141.50;100.00;63355.56;5086019;28;20056;-77
2022/06/13 04:45:27;;;;;;;14.98;2.70;;;;;;;-141.50;100.00;63355.56;5081785;28;20082;-77
2022/06/13 04:47:56;;;;;;;9.60;2.70;;;;;;;-141.50;100.00;63355.56;5082518;28;20041;-78
2022/06/13 04:50:32;;;;;;;9.32;2.65;;;;;;;-141.50;100.00;63355.56;5093405;28;20064;-77
2022/06/13 04:53:01;;;;;;;8.95;2.33;;;;;;;-141.50;100.00;63355.56;5096208;28;20044;-77
2022/06/13 04:55:43;;;;;;;8.60;2.50;;;;;;;-141.50;100.00;63355.56;5097895;28;20307;-78
2022/06/13 04:58:30;;;;;;;6.47;2.45;;;;;;;-141.50;100.00;63355.56;5094484;28;20095;-77
2022/06/13 05:01:13;;;;;;;8.35;2.30;;;;;;;-141.50;100.00;63355.56;5090973;28;20044;-80
2022/06/13 05:03:43;;;;;;;15.02;2.40;;;;;;;-141.50;100.00;63355.56;5084251;28;20062;-78
2022/06/13 05:06:22;;;;;;;11.88;3.03;;;;;;;-141.50;100.00;63355.56;5078762;28;20051;-78
2022/06/13 05:08:56;;;;;;;9.45;2.33;;;;;;;-141.50;100.00;63355.56;5075865;28;20102;-79
2022/06/13 05:11:37;;;;;;;10.50;2.05;;;;;;;-141.50;100.00;63355.56;5053119;28;20052;-78
2022/06/13 05:14:18;;;;;;;7.18;2.08;;;;;;;-141.50;100.00;63355.56;5079436;28;20148;-79
2022/06/13 05:17:03;;;;;;;8.30;2.40;;;;;;;-141.50;100.00;63355.56;5077834;28;20415;-77
2022/06/13 05:19:57;;;;;;;13.68;2.63;;;;;;;-141.50;100.00;63355.56;5050703;28;20048;-77
2022/06/13 05:22:39;;;;;;;9.43;2.65;;;;;;;-141.50;100.00;63355.56;5077017;28;20083;-77
2022/06/13 05:25:38;;;;;;;12.40;2.33;;;;;;;-141.50;100.00;63355.56;5051524;28;20084;-77
2022/06/13 05:28:04;;;;;;;8.35;2.17;;;;;;;-141.50;100.00;63355.56;5035464;28;20148;-79
2022/06/13 05:30:31;;;;;;;10.85;2.55;;;;;;;-141.50;100.00;63355.56;5080116;28;20043;-76
2022/06/13 05:33:06;;;;;;;8.73;2.22;;;;;;;-141.50;100.00;63355.56;5057779;28;20166;-77
2022/06/13 05:35:35;;;;;;;17.90;2.78;;;;;;;-141.50;100.00;63355.56;5083167;28;20122;-78
2022/06/13 05:38:04;;;;;;;10.95;2.88;;;;;;;-141.50;100.00;63355.56;5089600;28;20079;-76
2022/06/13 05:40:30;;;;;;;12.30;2.58;;;;;;;-141.50;100.00;63355.56;5062067;28;20106;-76
2022/06/13 05:42:57;;;;;;;14.02;2.83;;;;;;;-141.50;100.00;63355.56;5062930;28;20238;-77
2022/06/13 05:45:24;;;;;;;9.52;2.38;;;;;;;-141.50;100.00;63355.56;5061746;28;20090;-79
2022/06/13 05:47:54;;;;;;;9.10;2.30;;;;;;;-141.50;100.00;63355.56;5073542;28;20053;-80
2022/06/13 05:50:24;;;;;;;11.00;2.58;;;;;;;-141.50;100.00;63355.56;5070417;28;20178;-78
2022/06/13 05:52:51;;;;;;;11.35;2.42;;;;;;;-141.50;100.00;63355.56;5048207;28;20107;-79
2022/06/13 05:55:19;;;;;;;11.63;2.95;;;;;;;-141.50;100.00;63355.56;5048903;28;20539;-79
2022/06/13 05:58:01;;;;;;;10.85;2.58;;;;;;;-141.50;100.00;63355.56;5067289;28;20051;-79
2022/06/13 06:00:35;;;;;;;10.75;2.50;;;;;;;-141.50;100.00;63355.56;5069247;28;20059;-79
2022/06/13 06:03:02;;;;;;;11.23;2.60;;;;;;;-141.50;100.00;63355.56;5069592;28;20048;-79
2022/06/13 06:05:29;;;;;;;13.02;2.80;;;;;;;-141.50;100.00;63355.56;5066314;28;20430;-77
2022/06/13 06:07:56;;;;;;;13.38;2.88;;;;;;;-141.50;100.00;63355.56;5083675;28;20071;-76
2022/06/13 06:10:33;;;;;;;9.45;2.50;;;;;;;-141.50;100.00;63355.56;5084804;28;20056;-77
2022/06/13 06:13:00;;;;;;;13.68;2.85;;;;;;;-141.50;100.00;63355.56;5082241;28;20106;-79
2022/06/13 06:15:30;;;;;;;9.38;2.78;;;;;;;-141.50;100.00;63355.56;5073208;28;20111;-78
2022/06/13 06:17:56;;;;;;;11.98;2.75;;;;;;;-141.50;100.00;63355.56;5071924;28;20048;-79
2022/06/13 06:20:23;;;;;;;12.77;2.90;;;;;;;-141.50;100.00;63355.56;5071019;28;20048;-76
2022/06/13 06:22:55;;;;;;;12.10;2.65;;;;;;;-141.50;100.00;63355.56;5071119;28;20057;-75
2022/06/13 06:25:22;;;;;;;12.73;2.50;;;;;;;-141.50;100.00;63355.56;5072987;28;20506;-77
2022/06/13 06:27:49;;;;;;;9.65;2.55;;;;;;;-141.50;100.00;63355.56;5087325;28;20053;-77
2022/06/13 06:30:17;;;;;;;11.63;2.50;;;;;;;-141.50;100.00;63355.56;5071372;28;20088;-77
2022/06/13 06:32:46;;;;;;;10.25;2.30;;;;;;;-141.50;100.00;63355.56;5068180;28;20129;-77
2022/06/13 06:35:14;;;;;;;9.23;2.65;;;;;;;-141.50;100.00;63355.56;5037927;28;20547;-76
2022/06/13 06:37:46;;;;;;;13.70;3.05;;;;;;;-141.50;100.00;63355.56;5071949;28;20044;-79
2022/06/13 06:40:15;;;;;;;10.93;2.50;;;;;;;-141.50;100.00;63355.56;5070942;28;20490;-79
2022/06/13 06:42:42;;;;;;;11.60;2.85;;;;;;;-141.50;100.00;63355.56;5072070;28;20090;-80
2022/06/13 06:45:21;;;;;;;11.82;2.70;;;;;;;-141.50;100.00;63355.56;5071180;28;20060;-79
2022/06/13 06:47:48;;;;;;;11.52;2.40;;;;;;;-141.50;100.00;63355.56;5071229;28;20076;-79
2022/06/13 06:50:18;;;;;;;11.07;2.90;;;;;;;-141.50;100.00;63355.56;5054443;28;20456;-79
2022/06/13 06:52:44;;;;;;;16.92;2.75;;;;;;;-141.50;100.00;63355.56;5071758;28;20206;-80
2022/06/13 07:00:54;;;;;;;12.20;3.22;;;;;;;-141.50;100.00;63355.56;5077169;28;20049;-78
2022/06/13 07:03:21;;;;;;;14.38;3.20;;;;;;;-141.50;100.00;63355.56;5076121;28;20094;-79
2022/06/13 07:05:50;;;;;;;8.60;3.20;;;;;;;-141.50;100.00;63355.56;5070138;28;20511;-78
2022/06/13 07:08:18;;;;;;;14.30;3.55;;;;;;;-141.50;100.00;63355.56;5051692;28;20113;-78
2022/06/13 07:10:47;;;;;;;11.48;2.78;;;;;;;-141.50;100.00;63355.56;5068606;28;20084;-79
2022/06/13 07:13:16;;;;;;;14.02;3.00;;;;;;;-141.50;100.00;63355.56;5070205;28;20136;-79
2022/06/13 07:15:50;;;;;;;13.43;3.10;;;;;;;-141.50;100.00;63355.56;5052952;28;20117;-78
2022/06/13 07:18:17;;;;;;;12.68;3.20;;;;;;;-141.50;100.00;63355.56;5070086;28;20051;-77
2022/06/13 07:20:44;;;;;;;13.13;3.33;;;;;;;-141.50;100.00;63355.56;5068859;28;20105;-78
2022/06/13 07:23:11;;;;;;;15.38;3.53;;;;;;;-141.50;100.00;63355.56;5071532;28;20072;-78
2022/06/13 07:25:38;;;;;;;14.60;3.25;;;;;;;-141.50;100.00;63355.56;5053137;28;20482;-79
2022/06/13 07:28:05;;;;;;;12.07;3.40;;;;;;;-141.50;100.00;63355.56;5069713;28;20187;-80
2022/06/13 07:30:31;;;;;;;11.75;3.25;;;;;;;-141.50;100.00;63355.56;5052283;28;20502;-76
2022/06/13 07:32:58;;;;;;;11.52;3.40;;;;;;;-141.50;100.00;63355.56;5052779;28;20048;-79
2022/06/13 07:35:25;;;;;;;12.23;3.50;;;;;;;-141.50;100.00;63355.56;5053095;28;20540;-78
2022/06/13 07:40:37;;;;;;;11.10;3.08;;;;;;;-141.50;100.00;63355.56;5070669;28;20056;-78
2022/06/13 07:43:06;;;;;;;12.55;3.05;;;;;;;-141.50;100.00;63355.56;5051995;28;20202;-79
2022/06/13 07:45:39;;;;;;;14.43;3.28;;;;;;;-141.50;100.00;63355.56;5052901;28;20144;-79
2022/06/13 07:48:18;;;;;;;10.20;2.83;;;;;;;-141.50;100.00;63355.56;5054559;28;20056;-80
2022/06/13 07:50:45;;;;;;;15.48;3.00;;;;;;;-141.50;100.00;63355.56;5052992;28;20052;-78
2022/06/13 07:53:12;;;;;;;15.23;3.53;;;;;;;-141.50;100.00;63355.56;5074362;28;20063;-78
2022/06/13 07:55:39;;;;;;;15.27;3.20;;;;;;;-141.50;100.00;63355.56;5073279;28;20106;-79
2022/06/13 07:58:07;;;;;;;13.93;3.33;;;;;;;-141.50;100.00;63355.56;5068694;28;20040;-80
2022/06/13 08:00:36;;;;;;;15.98;3.35;;;;;;;-141.50;100.00;63355.56;5070920;28;20091;-78
2022/06/13 08:03:04;;;;;;;11.10;2.97;;;;;;;-141.50;100.00;63355.56;5061979;28;20060;-79
2022/06/13 08:05:32;;;;;;;13.48;3.13;;;;;;;-141.50;100.00;63355.56;5083317;28;20059;-79
2022/06/13 08:07:59;;;;;;;9.88;2.50;;;;;;;-141.50;100.00;63355.56;5078417;28;20045;-78
2022/06/13 08:10:25;;;;;;;15.68;3.28;;;;;;;-141.50;100.00;63355.56;5072583;28;20058;-80
2022/06/13 08:12:52;;;;;;;15.10;3.50;;;;;;;-141.50;100.00;63355.56;5070386;28;20154;-80
2022/06/13 08:15:22;;;;;;;13.65;2.95;;;;;;;-141.50;100.00;63355.56;5052280;28;20671;-79
2022/06/13 08:17:49;;;;;;;10.00;2.70;;;;;;;-141.50;100.00;63355.56;5052537;28;20040;-79
2022/06/13 08:20:15;;;;;;;11.18;2.92;;;;;;;-141.50;100.00;63355.56;5069017;28;20045;-79
2022/06/13 08:22:48;;;;;;;9.23;2.97;;;;;;;-141.50;100.00;63355.56;5068279;28;20121;-78
2022/06/13 08:25:21;;;;;;;10.27;3.17;;;;;;;-141.50;100.00;63355.56;5079989;28;20075;-77
2022/06/13 08:27:48;;;;;;;12.60;3.10;;;;;;;-141.50;100.00;63355.56;5073318;28;20114;-79
2022/06/13 08:30:15;;;;;;;12.30;2.72;;;;;;;-141.50;100.00;63355.56;5069566;28;20099;-79
2022/06/13 08:32:43;;;;;;;10.57;2.95;;;;;;;-141.50;100.00;63355.56;5069289;28;20083;-77
2022/06/13 08:35:10;;;;;;;11.65;2.85;;;;;;;-141.50;100.00;63355.56;5086016;28;20131;-78
2022/06/13 08:37:37;;;;;;;12.18;3.00;;;;;;;-141.50;100.00;63355.56;5086423;28;20057;-78
2022/06/13 08:40:05;;;;;;;13.68;2.92;;;;;;;-141.50;100.00;63355.56;5052171;28;20128;-77
2022/06/13 08:42:36;;;;;;;10.27;2.80;;;;;;;-141.50;100.00;63355.56;5068753;28;20135;-77
2022/06/13 08:45:24;;;;;;;14.18;3.00;;;;;;;-141.50;100.00;63355.56;5070340;28;20460;-77
2022/06/13 08:48:17;;;;;;;12.15;3.13;;;;;;;-141.50;100.00;63355.56;5051859;28;20044;-80
2022/06/13 08:50:59;;;;;;;9.98;2.88;;;;;;;-141.50;100.00;63355.56;5065085;28;20102;-80
2022/06/13 08:53:37;;;;;;;10.93;2.75;;;;;;;-141.50;100.00;63355.56;5073831;28;20431;-78
2022/06/13 08:56:14;;;;;;;12.00;2.80;;;;;;;-141.50;100.00;63355.56;5076283;28;20458;-78
2022/06/13 08:58:49;;;;;;;13.35;3.15;;;;;;;-141.50;100.00;63355.56;5056816;28;20048;-80
2022/06/13 09:01:18;;;;;;;11.85;2.55;;;;;;;-141.50;100.00;63355.56;5077246;28;20080;-75
2022/06/13 09:03:56;;;;;;;16.67;2.92;;;;;;;-141.50;100.00;63355.56;5077247;28;20072;-80
2022/06/13 09:06:51;;;;;;;13.73;2.70;;;;;;;-141.50;100.00;63355.56;5081797;28;20494;-79
2022/06/13 09:09:23;;;;;;;14.63;2.67;;;;;;;-141.50;100.00;63355.56;5077216;28;20048;-80
2022/06/13 09:12:27;;;;;;;12.00;2.50;;;;;;;-141.50;100.00;63355.56;5072169;28;20139;-79
2022/06/13 09:15:00;;;;;;;9.85;2.70;;;;;;;-141.50;100.00;63355.56;5057439;28;20071;-79
2022/06/13 09:17:37;;;;;;;12.90;3.13;;;;;;;-141.50;100.00;63355.56;5059407;28;20048;-78
2022/06/13 09:20:08;;;;;;;13.73;2.92;;;;;;;-141.50;100.00;63355.56;5072819;28;20048;-80
2022/06/13 09:22:50;;;;;;;13.90;2.85;;;;;;;-141.50;100.00;63355.56;5072776;28;20132;-79
2022/06/13 09:25:23;;;;;;;10.05;2.13;;;;;;;-141.50;100.00;63355.56;5071510;28;20056;-80
2022/06/13 09:27:58;;;;;;;8.15;2.30;;;;;;;-141.50;100.00;63355.56;5071048;28;20561;-78
2022/06/13 09:30:32;;;;;;;11.38;3.22;;;;;;;-141.50;100.00;63355.56;5072732;28;20100;-80
2022/06/13 09:33:08;;;;;;;10.27;2.50;;;;;;;-141.50;100.00;63355.56;5072781;28;20048;-78
2022/06/13 09:35:44;;;;;;;11.45;2.30;;;;;;;-141.50;100.00;63355.56;5073452;28;20102;-79
2022/06/13 09:38:31;;;;;;;9.82;2.47;;;;;;;-141.50;100.00;63355.56;5071930;28;20088;-79
2022/06/13 09:41:00;;;;;;;9.80;2.70;;;;;;;-141.50;100.00;63355.56;5073367;28;20114;-80
2022/06/13 09:43:46;;;;;;;7.55;1.98;;;;;;;-141.50;100.00;63355.56;5073197;28;20055;-79
2022/06/13 09:46:42;;;;;;;6.83;2.07;;;;;;;-141.50;100.00;63355.56;5072516;28;20494;-78
2022/06/13 09:49:36;;;;;;;6.93;1.90;;;;;;;-141.50;100.00;63355.56;5068603;28;20518;-79
2022/06/13 09:52:46;;;;;;;11.10;2.67;;;;;;;-141.50;100.00;63355.56;5073027;28;20053;-79
2022/06/13 09:55:31;;;;;;;9.65;2.55;;;;;;;-141.50;100.00;63355.56;5072970;28;20041;-79
2022/06/13 09:58:20;;;;;;;10.02;2.80;;;;;;;-141.50;100.00;63355.56;5072954;28;20613;-80
2022/06/13 10:00:52;;;;;;;12.48;2.30;;;;;;;-141.50;100.00;63355.56;5054729;28;20136;-80
2022/06/13 10:03:22;;;;;;;7.30;2.22;;;;;;;-141.50;100.00;63355.56;5054645;28;20067;-79
2022/06/13 10:06:14;;;;;;;8.18;2.30;;;;;;;-141.50;100.00;63355.56;5052735;28;20088;-80
2022/06/13 10:09:03;;;;;;;10.68;2.42;;;;;;;-141.50;100.00;63355.56;5070030;28;20068;-79
2022/06/13 10:11:49;;;;;;;11.00;2.65;;;;;;;-141.50;100.00;63355.56;5053534;28;20098;-80
2022/06/13 10:14:34;;;;;;;11.43;2.53;;;;;;;-141.50;100.00;63355.56;5053983;28;20110;-77
2022/06/13 10:17:33;;;;;;;16.30;2.88;;;;;;;-141.50;100.00;63355.56;5055641;28;20144;-79
2022/06/13 10:20:11;;;;;;;10.50;2.80;;;;;;;-141.50;100.00;63355.56;5062895;28;20537;-80
2022/06/13 10:22:56;;;;;;;5.55;2.15;;;;;;;-141.50;100.00;63355.56;5081778;28;20063;-78
2022/06/13 10:25:41;;;;;;;9.57;2.58;;;;;;;-141.50;100.00;63355.56;5081921;28;20045;-79
2022/06/13 10:28:29;;;;;;;11.57;3.40;;;;;;;-141.50;100.00;63355.56;5073452;28;20110;-80
2022/06/13 10:31:15;;;;;;;13.00;2.72;;;;;;;-141.50;100.00;63355.56;5073030;28;20060;-79
2022/06/13 10:33:45;;;;;;;13.18;3.40;;;;;;;-141.50;100.00;63355.56;5050789;28;20052;-80
2022/06/13 10:36:54;;;;;;;12.43;3.20;;;;;;;-141.50;100.00;63355.56;5069141;28;20052;-79
2022/06/13 10:39:24;;;;;;;10.85;3.40;;;;;;;-141.50;100.00;63355.56;5030781;28;20192;-80
2022/06/13 10:42:01;;;;;;;12.68;3.25;;;;;;;-141.50;100.00;63355.56;5050884;28;20074;-79
2022/06/13 10:44:31;;;;;;;15.65;3.25;;;;;;;-141.50;100.00;63355.56;5050024;28;20129;-80
2022/06/13 10:47:04;;;;;;;12.77;3.30;;;;;;;-141.50;100.00;63355.56;5048413;28;20057;-78
2022/06/13 10:49:44;;;;;;;9.98;3.03;;;;;;;-141.50;100.00;63355.56;5067428;28;20104;-78
2022/06/13 10:52:19;;;;;;;19.63;3.70;;;;;;;-141.50;100.00;63355.56;5049255;28;20553;-80
2022/06/13 10:54:50;;;;;;;11.93;3.70;;;;;;;-141.50;100.00;63355.56;5068490;28;20109;-79
2022/06/13 10:57:25;;;;;;;16.15;3.70;;;;;;;-141.50;100.00;63355.56;5066818;28;20632;-78
2022/06/13 11:00:24;;;;;;;18.63;3.58;;;;;;;-141.50;100.00;63355.56;5067461;28;20064;-77
2022/06/13 11:02:51;;;;;;;13.60;3.20;;;;;;;-141.50;100.00;63355.56;5066352;28;20053;-78
2022/06/13 11:05:25;;;;;;;16.15;3.67;;;;;;;-141.50;100.00;63355.56;5068041;28;20155;-80
2022/06/13 11:07:55;;;;;;;15.88;3.85;;;;;;;-141.50;100.00;63355.56;5053279;28;20109;-80
2022/06/13 11:10:40;;;;;;;19.27;3.80;;;;;;;-141.50;100.00;63355.56;5038705;28;20059;-80
2022/06/13 11:13:17;;;;;;;11.82;3.50;;;;;;;-141.50;100.00;63355.56;5055966;28;20315;-81
2022/06/13 11:24:35;;;;;;;7.80;2.53;;;;;;;-141.50;100.00;63355.56;5072282;28;20048;-80
2022/06/13 11:30:16;;;;;;;8.65;2.78;;;;;;;-141.50;100.00;63355.56;5072672;28;20609;-80
2022/06/13 11:32:57;;;;;;;9.95;3.17;;;;;;;-141.50;100.00;63355.56;5054681;28;20059;-81
2022/06/13 11:35:44;;;;;;;9.95;4.03;;;;;;;-141.50;100.00;63355.56;5072895;28;20105;-81
2022/06/13 11:38:25;;;;;;;14.32;2.90;;;;;;;-141.50;100.00;63355.56;5072115;28;20052;-80
2022/06/13 11:41:13;;;;;;;11.80;2.60;;;;;;;-141.50;100.00;63355.56;5055095;28;20109;-80
2022/06/13 11:43:46;;;;;;;9.35;3.17;;;;;;;-141.50;100.00;63355.56;5075847;28;20121;-80
2022/06/13 11:46:31;;;;;;;7.85;3.03;;;;;;;-141.50;100.00;63355.56;5073926;28;20055;-81
2022/06/13 11:49:09;;;;;;;9.55;2.40;;;;;;;-141.50;100.00;63355.56;5071962;28;20127;-80
2022/06/13 11:51:51;;;;;;;6.75;2.22;;;;;;;-141.50;100.00;63355.56;5054694;28;20079;-79
2022/06/13 11:54:32;;;;;;;5.45;2.28;;;;;;;-141.50;100.00;63355.56;5073017;28;20056;-82
2022/06/13 11:57:34;;;;;;;5.05;2.25;;;;;;;-141.50;100.00;63355.56;5054557;28;20049;-83
2022/06/13 12:00:08;;;;;;;6.80;2.20;;;;;;;-141.50;100.00;63355.56;5062344;28;20052;-81
2022/06/13 12:02:39;;;;;;;10.27;2.15;;;;;;;-141.50;100.00;63355.56;5054402;28;20402;-80
2022/06/13 12:05:14;;;;;;;6.95;1.70;;;;;;;-141.50;100.00;63355.56;5072645;28;20466;-81